Time;durP1;ratioP1;P1;durP2;ratioP2;P2;SDS_P1;SDS_P2;PMS_P1;PMS_P2;Temp;Humidity;BMP_temperature;BMP_pressure;BME280_temperature;BME280_humidity;BME280_pressure;Samples;Min_cycle;Max_cycle;Signal;HPM_P1;HPM_P2
2021/06/17 00:00:13;;;;;;;8.07;7.07;;;24.10;1.00;;;;;;5026594;28;20212;-74
2021/06/17 00:02:40;;;;;;;10.07;7.63;;;24.20;1.00;;;;;;5009138;28;20210;-74
2021/06/17 00:05:10;;;;;;;10.33;7.83;;;24.10;1.00;;;;;;5008961;28;20210;-74
2021/06/17 00:07:38;;;;;;;9.17;8.23;;;24.00;1.00;;;;;;4988419;28;20284;-75
2021/06/17 00:10:08;;;;;;;12.70;8.33;;;24.00;99.90;;;;;;4991851;28;20278;-74
2021/06/17 00:12:35;;;;;;;9.07;7.60;;;24.00;99.90;;;;;;5009949;28;20635;-74
2021/06/17 00:15:05;;;;;;;9.60;8.27;;;23.90;99.90;;;;;;4991023;28;20206;-74
2021/06/17 00:17:33;;;;;;;9.30;8.37;;;23.90;99.90;;;;;;5012208;28;20214;-74
2021/06/17 00:20:00;;;;;;;9.63;8.33;;;23.90;1.00;;;;;;4989508;28;20201;-74
2021/06/17 00:22:27;;;;;;;10.27;8.17;;;23.90;1.00;;;;;;4999466;28;20228;-74
2021/06/17 00:24:54;;;;;;;10.23;9.10;;;23.90;99.90;;;;;;5012342;28;20310;-74
2021/06/17 00:27:21;;;;;;;11.27;9.10;;;24.00;1.00;;;;;;5010797;28;20667;-75
2021/06/17 00:29:48;;;;;;;14.57;10.03;;;24.00;1.00;;;;;;5009498;28;20696;-75
2021/06/17 00:32:15;;;;;;;11.03;9.23;;;24.00;1.00;;;;;;5014377;28;20224;-75
2021/06/17 00:34:42;;;;;;;10.70;8.97;;;23.90;1.00;;;;;;5010369;28;20284;-75
2021/06/17 00:37:09;;;;;;;10.90;9.80;;;23.80;1.00;;;;;;4996233;28;20287;-75
2021/06/17 00:39:37;;;;;;;10.67;9.43;;;23.80;99.90;;;;;;5000733;28;21393;-74
2021/06/17 00:42:05;;;;;;;11.47;10.33;;;23.80;99.90;;;;;;4997275;28;20235;-74
2021/06/17 00:44:32;;;;;;;11.30;10.20;;;23.80;99.90;;;;;;5012784;28;20307;-74
2021/06/17 00:46:59;;;;;;;11.03;10.03;;;23.80;1.00;;;;;;5030702;28;20242;-74
2021/06/17 00:49:26;;;;;;;12.73;10.17;;;23.80;1.00;;;;;;5001635;28;20227;-74
2021/06/17 00:51:53;;;;;;;13.20;11.47;;;23.80;1.00;;;;;;5014047;28;20193;-75
2021/06/17 00:54:33;;;;;;;11.77;10.40;;;23.70;1.00;;;;;;5011257;28;20200;-74
2021/06/17 00:57:02;;;;;;;13.57;10.37;;;23.70;1.00;;;;;;5000846;28;20298;-74
2021/06/17 00:59:29;;;;;;;13.33;11.13;;;23.70;99.90;;;;;;5031355;28;20259;-74
2021/06/17 01:01:56;;;;;;;13.67;10.53;;;23.60;13.40;;;;;;5013005;28;20652;-74
2021/06/17 01:04:28;;;;;;;13.10;11.80;;;23.60;99.90;;;;;;5028550;28;20216;-74
2021/06/17 01:06:55;;;;;;;14.73;11.63;;;23.60;99.90;;;;;;5029092;28;20271;-74
2021/06/17 01:09:41;;;;;;;12.97;11.63;;;23.60;40.60;;;;;;5028717;28;20228;-74
2021/06/17 01:12:41;;;;;;;13.40;11.50;;;23.60;99.90;;;;;;5032370;28;20223;-74
2021/06/17 01:15:13;;;;;;;14.57;12.53;;;23.60;99.90;;;;;;5021891;28;20209;-74
2021/06/17 01:17:48;;;;;;;16.07;13.57;;;23.50;99.90;;;;;;5031489;28;20758;-74
2021/06/17 01:20:33;;;;;;;14.53;12.77;;;23.50;99.90;;;;;;5009887;28;20286;-74
2021/06/17 01:23:27;;;;;;;16.30;13.00;;;23.60;1.00;;;;;;5026808;28;20302;-74
2021/06/17 01:26:08;;;;;;;14.53;12.97;;;23.50;1.00;;;;;;5017624;28;20249;-74
2021/06/17 01:28:38;;;;;;;14.60;12.37;;;23.50;1.00;;;;;;5031728;28;20619;-74
2021/06/17 01:31:12;;;;;;;14.10;12.77;;;23.40;99.90;;;;;;5026409;28;20566;-74
2021/06/17 01:33:44;;;;;;;14.23;12.83;;;23.40;1.00;;;;;;5035461;28;20595;-75
2021/06/17 01:36:18;;;;;;;18.43;13.03;;;23.40;1.00;;;;;;5027095;28;20354;-74
2021/06/17 01:38:55;;;;;;;16.03;12.97;;;23.30;91.40;;;;;;5022291;28;20586;-74
2021/06/17 01:41:26;;;;;;;15.37;13.13;;;23.30;1.00;;;;;;5029986;28;20188;-74
2021/06/17 01:43:54;;;;;;;16.03;14.43;;;23.30;1.00;;;;;;5014202;28;20204;-74
2021/06/17 01:46:21;;;;;;;15.33;13.83;;;23.30;1.00;;;;;;5013150;28;20219;-74
2021/06/17 01:48:52;;;;;;;18.93;14.37;;;23.20;1.00;;;;;;5014335;28;20205;-74
2021/06/17 01:51:22;;;;;;;17.10;13.63;;;23.20;1.00;;;;;;5026094;28;20310;-74
2021/06/17 01:53:50;;;;;;;18.40;14.60;;;23.30;1.00;;;;;;5010784;28;20262;-74
2021/06/17 01:56:22;;;;;;;16.93;15.20;;;23.30;1.00;;;;;;5011488;28;20301;-74
2021/06/17 01:58:55;;;;;;;16.17;14.47;;;23.40;95.40;;;;;;4996486;28;20197;-75
2021/06/17 02:01:29;;;;;;;16.90;14.97;;;23.40;99.90;;;;;;5031886;28;20280;-74
2021/06/17 02:03:58;;;;;;;16.07;14.43;;;23.40;99.90;;;;;;5008670;28;20205;-74
2021/06/17 02:06:27;;;;;;;16.33;14.57;;;23.40;1.00;;;;;;5016746;28;20263;-75
2021/06/17 02:08:56;;;;;;;17.57;15.33;;;23.30;1.00;;;;;;4996732;28;20240;-74
2021/06/17 02:11:25;;;;;;;16.77;14.77;;;23.30;1.00;;;;;;4992698;28;20209;-74
2021/06/17 02:13:54;;;;;;;16.50;14.73;;;23.30;1.00;;;;;;5011729;28;20596;-74
2021/06/17 02:16:22;;;;;;;16.97;15.20;;;23.30;99.90;;;;;;5033298;28;20228;-74
2021/06/17 02:18:52;;;;;;;16.90;15.00;;;23.30;99.90;;;;;;5012603;28;20291;-74
2021/06/17 02:21:20;;;;;;;17.77;15.80;;;23.30;99.90;;;;;;5027003;28;20604;-74
2021/06/17 02:23:56;;;;;;;17.23;15.43;;;23.20;1.00;;;;;;5012291;28;20278;-74
2021/06/17 02:26:26;;;;;;;19.53;16.60;;;23.20;1.00;;;;;;5029095;28;20299;-74
2021/06/17 02:28:56;;;;;;;17.67;15.80;;;23.20;99.90;;;;;;5032051;28;20236;-74
2021/06/17 02:31:30;;;;;;;18.00;14.97;;;23.20;99.90;;;;;;5015171;28;20212;-74
2021/06/17 02:33:57;;;;;;;16.87;15.13;;;23.20;99.90;;;;;;5014421;28;20251;-74
2021/06/17 02:36:26;;;;;;;17.00;15.30;;;23.20;1.00;;;;;;5019590;28;20262;-74
2021/06/17 02:39:00;;;;;;;18.43;16.17;;;23.10;1.00;;;;;;5038931;28;20224;-74
2021/06/17 02:41:27;;;;;;;18.37;16.03;;;23.10;1.00;;;;;;5007729;28;20278;-76
2021/06/17 02:43:58;;;;;;;18.53;16.50;;;23.10;1.00;;;;;;4994398;28;20286;-74
2021/06/17 02:46:25;;;;;;;17.53;15.73;;;23.10;99.90;;;;;;5027438;28;20274;-74
2021/06/17 02:48:53;;;;;;;19.13;16.23;;;23.00;1.00;;;;;;5011275;28;20258;-75
2021/06/17 02:51:21;;;;;;;20.17;16.57;;;23.00;1.00;;;;;;5029445;28;20561;-74
2021/06/17 02:53:49;;;;;;;22.17;16.83;;;23.00;99.90;;;;;;4998920;28;20282;-74
2021/06/17 02:56:51;;;;;;;19.90;15.30;;;22.90;99.90;;;;;;5033505;28;20606;-74
2021/06/17 02:59:56;;;;;;;20.33;17.00;;;22.90;99.90;;;;;;5004040;28;20228;-74
2021/06/17 03:02:36;;;;;;;17.20;15.40;;;23.00;99.90;;;;;;5010361;28;20552;-74
2021/06/17 03:05:06;;;;;;;20.23;17.03;;;23.00;1.00;;;;;;5013071;28;20880;-74
2021/06/17 03:07:39;;;;;;;18.23;16.33;;;23.00;99.90;;;;;;5030780;28;20275;-75
2021/06/17 03:10:11;;;;;;;18.67;16.27;;;22.90;1.00;;;;;;5027589;28;20218;-76
2021/06/17 03:12:43;;;;;;;19.53;16.63;;;22.90;1.00;;;;;;4989803;28;20198;-75
2021/06/17 03:15:11;;;;;;;17.60;15.70;;;22.90;99.90;;;;;;5027635;28;20202;-74
2021/06/17 03:17:42;;;;;;;17.43;15.63;;;22.90;99.90;;;;;;5029906;28;20284;-74
2021/06/17 03:20:11;;;;;;;17.37;15.33;;;22.80;99.90;;;;;;5028847;28;20290;-74
2021/06/17 03:22:43;;;;;;;18.77;16.70;;;22.80;99.90;;;;;;4982799;28;20241;-74
2021/06/17 03:25:14;;;;;;;19.70;16.53;;;22.80;99.90;;;;;;5011217;28;20288;-75
2021/06/17 03:27:42;;;;;;;16.77;14.97;;;22.80;99.90;;;;;;5011166;28;20197;-74
2021/06/17 03:30:11;;;;;;;17.50;15.57;;;22.70;1.00;;;;;;5007685;28;20205;-74
2021/06/17 03:32:39;;;;;;;16.70;15.10;;;22.70;1.00;;;;;;4997857;28;20216;-74
2021/06/17 03:35:07;;;;;;;17.67;15.60;;;22.70;1.00;;;;;;5011420;28;20278;-74
2021/06/17 03:37:35;;;;;;;19.13;15.43;;;22.70;1.00;;;;;;5010965;28;20312;-74
2021/06/17 03:40:02;;;;;;;17.80;15.40;;;22.70;1.00;;;;;;4991771;28;20206;-74
2021/06/17 03:42:31;;;;;;;17.53;15.33;;;22.70;1.00;;;;;;5003026;28;20190;-74
2021/06/17 03:44:58;;;;;;;17.87;15.97;;;22.70;1.00;;;;;;5035047;28;20199;-74
2021/06/17 03:47:26;;;;;;;17.43;15.63;;;22.70;1.00;;;;;;5012655;28;21629;-74
2021/06/17 03:49:55;;;;;;;17.43;15.53;;;22.70;99.90;;;;;;5028596;28;20199;-74
2021/06/17 03:52:22;;;;;;;18.00;15.20;;;22.70;99.90;;;;;;4999816;28;20201;-74
2021/06/17 03:54:50;;;;;;;18.23;15.70;;;22.70;1.00;;;;;;5009505;28;20236;-76
2021/06/17 03:57:21;;;;;;;16.83;15.00;;;22.70;1.00;;;;;;4999511;28;20823;-76
2021/06/17 03:59:50;;;;;;;18.10;15.67;;;22.60;1.00;;;;;;5020274;28;20198;-74
2021/06/17 04:02:17;;;;;;;18.23;15.50;;;22.70;99.90;;;;;;5033014;28;20806;-74
2021/06/17 04:04:45;;;;;;;17.90;15.23;;;22.70;99.90;;;;;;4998939;28;20301;-74
2021/06/17 04:07:23;;;;;;;18.13;15.50;;;22.70;99.90;;;;;;5017009;28;20219;-74
2021/06/17 04:09:52;;;;;;;19.30;17.20;;;22.70;1.00;;;;;;5029773;28;21075;-74
2021/06/17 04:12:21;;;;;;;19.30;17.40;;;22.80;99.90;;;;;;4993812;28;20313;-74
2021/06/17 04:14:51;;;;;;;17.97;16.07;;;22.70;94.20;;;;;;5030091;28;20558;-76
2021/06/17 04:17:21;;;;;;;18.70;16.80;;;22.70;1.00;;;;;;5004025;28;20189;-74
2021/06/17 04:19:49;;;;;;;17.87;16.07;;;22.80;1.00;;;;;;5018072;28;20292;-74
2021/06/17 04:22:18;;;;;;;20.07;16.80;;;22.80;1.00;;;;;;5016974;28;20201;-74
2021/06/17 04:24:52;;;;;;;18.70;16.60;;;22.70;99.90;;;;;;5031311;28;20227;-74
2021/06/17 04:27:20;;;;;;;18.80;16.80;;;22.80;1.00;;;;;;5023708;28;20230;-74
2021/06/17 04:29:50;;;;;;;19.67;17.67;;;22.80;1.00;;;;;;5021405;28;20566;-73
2021/06/17 04:32:17;;;;;;;24.27;17.70;;;22.70;1.00;;;;;;5014468;28;20652;-74
2021/06/17 04:34:45;;;;;;;19.50;17.50;;;22.80;99.90;;;;;;5023664;28;20232;-74
2021/06/17 04:37:15;;;;;;;19.53;16.73;;;22.80;1.00;;;;;;5009635;28;20699;-75
2021/06/17 04:39:42;;;;;;;18.97;17.07;;;22.70;99.90;;;;;;5009551;28;20230;-73
2021/06/17 04:42:10;;;;;;;19.90;17.23;;;22.70;1.00;;;;;;5005696;28;20928;-76
2021/06/17 04:44:42;;;;;;;18.83;16.87;;;22.70;1.00;;;;;;4991073;28;20206;-75
2021/06/17 04:47:09;;;;;;;20.13;17.03;;;22.70;99.90;;;;;;5008922;28;20243;-75
2021/06/17 04:49:38;;;;;;;19.50;17.57;;;22.70;1.00;;;;;;5008825;28;20291;-75
2021/06/17 04:52:30;;;;;;;18.60;16.70;;;22.80;99.90;;;;;;5003627;28;20221;-75
2021/06/17 04:54:57;;;;;;;19.20;17.13;;;22.70;1.00;;;;;;5013821;28;20271;-76
2021/06/17 04:57:24;;;;;;;19.83;17.17;;;22.80;1.00;;;;;;5013001;28;20239;-75
2021/06/17 04:59:51;;;;;;;17.30;15.53;;;22.80;1.00;;;;;;5009840;28;20229;-75
2021/06/17 05:02:17;;;;;;;18.27;16.37;;;22.80;1.00;;;;;;5013455;28;20680;-77
2021/06/17 05:04:44;;;;;;;21.17;16.07;;;22.90;1.00;;;;;;5010632;28;20205;-76
2021/06/17 05:12:27;;;;;;;16.03;14.47;;;23.00;1.00;;;;;;5008939;28;20923;-75
2021/06/17 05:14:54;;;;;;;18.57;16.67;;;23.00;1.00;;;;;;5009412;28;20200;-76
2021/06/17 05:17:21;;;;;;;22.20;17.03;;;22.90;99.90;;;;;;4990470;28;20218;-75
2021/06/17 05:19:48;;;;;;;22.20;16.63;;;23.00;1.00;;;;;;5015727;28;20214;-75
2021/06/17 05:22:15;;;;;;;19.87;17.77;;;23.00;99.90;;;;;;5009020;28;20248;-76
2021/06/17 05:24:42;;;;;;;19.23;16.43;;;23.10;78.00;;;;;;4990759;28;20227;-76
2021/06/17 05:27:09;;;;;;;18.67;16.60;;;23.30;1.00;;;;;;5007289;28;20333;-76
2021/06/17 05:29:36;;;;;;;18.80;16.83;;;23.30;1.00;;;;;;5010833;28;20240;-76
2021/06/17 05:32:03;;;;;;;19.50;17.47;;;23.40;1.00;;;;;;5011901;28;20259;-75
2021/06/17 05:34:30;;;;;;;18.23;16.33;;;23.50;1.00;;;;;;5007829;28;20293;-75
2021/06/17 05:36:57;;;;;;;20.23;16.50;;;23.60;1.00;;;;;;4991310;28;20228;-77
2021/06/17 05:39:24;;;;;;;20.80;17.40;;;23.60;99.90;;;;;;5005636;28;20246;-76
2021/06/17 05:41:51;;;;;;;18.17;16.27;;;23.60;1.00;;;;;;5004912;28;20650;-77
2021/06/17 05:44:18;;;;;;;22.20;15.30;;;23.80;59.10;;;;;;5010716;28;20773;-79
2021/06/17 05:46:44;;;;;;;18.83;16.90;;;24.00;1.00;;;;;;5009910;28;20237;-77
2021/06/17 05:49:13;;;;;;;18.37;15.17;;;24.20;99.90;;;;;;4991035;28;20207;-80
2021/06/17 05:51:40;;;;;;;17.17;15.37;;;24.30;99.90;;;;;;4989047;28;20243;-80
2021/06/17 05:54:07;;;;;;;16.57;14.87;;;24.40;1.00;;;;;;4995672;28;20249;-80
2021/06/17 05:56:34;;;;;;;17.47;15.47;;;24.40;1.00;;;;;;4995063;28;20637;-79
2021/06/17 05:59:01;;;;;;;16.27;14.57;;;24.50;99.90;;;;;;4994728;28;20314;-80
2021/06/17 06:01:28;;;;;;;13.47;12.20;;;24.50;99.90;;;;;;5008270;28;20206;-76
2021/06/17 06:03:55;;;;;;;15.63;11.40;;;24.50;20.50;;;;;;4992339;28;20633;-77
2021/06/17 06:06:22;;;;;;;17.17;11.80;;;24.40;1.00;;;;;;5006400;28;20210;-75
2021/06/17 06:08:49;;;;;;;10.80;9.70;;;24.40;99.90;;;;;;5012042;28;20281;-76
2021/06/17 06:11:18;;;;;;;10.73;8.90;;;24.50;1.00;;;;;;5006013;28;20234;-77
2021/06/17 06:13:46;;;;;;;10.40;9.20;;;24.60;99.90;;;;;;5008151;28;20204;-76
2021/06/17 06:16:13;;;;;;;10.60;9.37;;;24.60;1.00;;;;;;5007141;28;20592;-76
2021/06/17 06:18:41;;;;;;;11.53;8.73;;;24.60;99.90;;;;;;5010919;28;20210;-76
2021/06/17 06:21:08;;;;;;;13.40;9.63;;;24.70;1.00;;;;;;5009650;28;20219;-77
2021/06/17 06:23:35;;;;;;;10.30;8.13;;;24.60;99.90;;;;;;4990820;28;20631;-76
2021/06/17 06:26:02;;;;;;;9.67;8.70;;;24.60;99.90;;;;;;5015158;28;20205;-76
2021/06/17 06:28:31;;;;;;;9.53;8.20;;;24.70;39.40;;;;;;4991263;28;20213;-76
2021/06/17 06:30:58;;;;;;;12.43;8.80;;;24.80;1.00;;;;;;5008763;28;20292;-77
2021/06/17 06:33:25;;;;;;;9.07;8.13;;;24.80;1.00;;;;;;4977015;28;20289;-76
2021/06/17 06:35:52;;;;;;;8.40;7.60;;;24.90;1.00;;;;;;4993898;28;20236;-77
2021/06/17 06:38:19;;;;;;;12.20;7.93;;;24.90;1.00;;;;;;4993969;28;20203;-77
2021/06/17 06:40:46;;;;;;;10.23;8.50;;;24.90;1.00;;;;;;4996299;28;20676;-77
2021/06/17 06:43:15;;;;;;;8.13;7.13;;;24.80;25.50;;;;;;5011671;28;20262;-75
2021/06/17 06:45:42;;;;;;;11.43;7.07;;;24.80;1.00;;;;;;5012499;28;20205;-76
2021/06/17 06:48:10;;;;;;;6.83;6.13;;;24.90;99.90;;;;;;5016058;28;20284;-76
2021/06/17 06:50:37;;;;;;;7.43;6.73;;;24.90;1.00;;;;;;5001284;28;20206;-75
2021/06/17 06:53:05;;;;;;;7.20;6.50;;;25.00;1.00;;;;;;5015059;28;20193;-76
2021/06/17 06:55:31;;;;;;;9.80;6.93;;;25.20;1.00;;;;;;5011849;28;20851;-77
2021/06/17 06:57:58;;;;;;;6.00;5.40;;;25.40;99.90;;;;;;4995196;28;20707;-77
2021/06/17 07:00:25;;;;;;;6.67;4.63;;;25.50;99.90;;;;;;4994443;28;20220;-76
2021/06/17 07:02:52;;;;;;;5.57;4.60;;;25.60;1.00;;;;;;5030097;28;20234;-76
2021/06/17 07:05:19;;;;;;;4.63;4.23;;;25.60;1.00;;;;;;5011973;28;20193;-75
2021/06/17 07:07:46;;;;;;;6.70;4.50;;;25.70;1.00;;;;;;5031446;28;20822;-76
2021/06/17 07:10:13;;;;;;;4.67;4.00;;;25.70;99.90;;;;;;5028112;28;20231;-75
2021/06/17 07:12:41;;;;;;;5.23;4.17;;;25.70;99.90;;;;;;5024901;28;20201;-77
2021/06/17 07:15:09;;;;;;;4.80;4.30;;;25.70;1.00;;;;;;5029201;28;20208;-75
2021/06/17 07:17:36;;;;;;;6.03;4.20;;;25.80;1.00;;;;;;5011029;28;20219;-76
2021/06/17 07:20:04;;;;;;;6.37;3.93;;;26.20;29.70;;;;;;5031358;28;20199;-75
2021/06/17 07:22:31;;;;;;;6.60;4.27;;;26.40;1.00;;;;;;5028673;28;20248;-76
2021/06/17 07:24:58;;;;;;;7.30;3.83;;;26.50;1.00;;;;;;5012146;28;20697;-76
2021/06/17 07:27:25;;;;;;;4.10;3.70;;;26.40;1.00;;;;;;5008303;28;20219;-77
2021/06/17 07:29:52;;;;;;;4.10;3.33;;;26.60;1.00;;;;;;5027874;28;20199;-78
2021/06/17 07:32:20;;;;;;;5.57;4.10;;;26.80;1.00;;;;;;5010978;28;20449;-79
2021/06/17 07:34:47;;;;;;;5.97;3.80;;;26.90;1.00;;;;;;5012706;28;20275;-77
2021/06/17 07:37:15;;;;;;;7.13;3.60;;;27.40;99.90;;;;;;5025688;28;20259;-77
2021/06/17 07:39:42;;;;;;;3.90;3.10;;;27.60;1.00;;;;;;5013423;28;20217;-76
2021/06/17 07:42:10;;;;;;;4.20;3.50;;;28.40;1.00;;;;;;5011904;28;20212;-76
2021/06/17 07:44:37;;;;;;;5.60;3.10;;;28.60;1.00;;;;;;5014311;28;20583;-76
2021/06/17 07:47:05;;;;;;;4.85;3.33;;;28.80;1.00;;;;;;4989753;28;20225;-77
2021/06/17 07:49:32;;;;;;;4.90;3.33;;;28.80;1.00;;;;;;5014369;28;20377;-77
2021/06/17 07:52:00;;;;;;;6.00;3.50;;;28.70;1.00;;;;;;5028898;28;20381;-78
2021/06/17 07:54:27;;;;;;;5.10;3.35;;;29.00;1.00;;;;;;5016667;28;20618;-76
2021/06/17 07:56:56;;;;;;;4.03;3.00;;;29.20;1.00;;;;;;4994652;28;20224;-78
2021/06/17 07:59:23;;;;;;;4.88;3.25;;;29.00;1.00;;;;;;5028596;28;20330;-77
2021/06/17 08:01:53;;;;;;;4.63;2.97;;;29.10;99.90;;;;;;4998973;28;20572;-77
2021/06/17 08:04:20;;;;;;;9.32;3.67;;;29.60;99.90;;;;;;4985009;28;20213;-77
2021/06/17 08:06:47;;;;;;;3.47;2.93;;;29.60;99.90;;;;;;5037074;28;20507;-76
2021/06/17 08:09:18;;;;;;;5.17;3.10;;;29.60;99.90;;;;;;4994917;28;20318;-77
2021/06/17 08:11:46;;;;;;;3.87;3.00;;;30.10;99.90;;;;;;5010333;28;20201;-76
2021/06/17 08:14:25;;;;;;;6.13;3.17;;;30.10;99.90;;;;;;5002563;28;20236;-76
2021/06/17 08:16:54;;;;;;;5.63;3.63;;;30.20;99.90;;;;;;4995440;28;20499;-76
2021/06/17 08:19:27;;;;;;;3.10;2.77;;;30.50;99.90;;;;;;5026176;28;20233;-76
2021/06/17 08:21:59;;;;;;;5.83;2.83;;;30.20;99.90;;;;;;5027605;28;20259;-77
2021/06/17 08:24:26;;;;;;;9.43;3.53;;;30.60;99.90;;;;;;5008876;28;21870;-77
2021/06/17 08:26:53;;;;;;;6.33;3.03;;;30.50;99.90;;;;;;5012532;28;20339;-75
2021/06/17 08:29:20;;;;;;;6.10;3.13;;;31.10;99.90;;;;;;5027969;28;20362;-74
2021/06/17 08:31:47;;;;;;;7.67;3.10;;;31.00;99.90;;;;;;5026841;28;20223;-76
2021/06/17 08:34:14;;;;;;;5.17;3.17;;;31.20;99.90;;;;;;4993808;28;20284;-75
2021/06/17 08:36:42;;;;;;;5.67;2.87;;;32.00;99.90;;;;;;5025653;28;20809;-75
2021/06/17 08:39:09;;;;;;;4.53;2.90;;;32.50;99.90;;;;;;5007130;28;20656;-75
2021/06/17 08:41:35;;;;;;;7.75;2.30;;;32.40;99.90;;;;;;5012217;28;20235;-75
2021/06/17 08:44:03;;;;;;;8.02;3.10;;;33.00;99.90;;;;;;5010752;28;20360;-75
2021/06/17 08:46:30;;;;;;;3.17;2.80;;;32.70;99.90;;;;;;5009557;28;20213;-75
2021/06/17 08:48:57;;;;;;;4.20;2.72;;;31.90;99.90;;;;;;5014023;28;20514;-76
2021/06/17 08:51:26;;;;;;;5.13;2.70;;;31.60;99.90;;;;;;5026153;28;20224;-75
2021/06/17 08:53:53;;;;;;;4.05;2.95;;;32.10;99.90;;;;;;5027202;28;20699;-75
2021/06/17 08:56:22;;;;;;;3.65;2.78;;;33.00;99.90;;;;;;5011869;28;20197;-75
2021/06/17 08:58:50;;;;;;;3.90;2.50;;;32.70;99.90;;;;;;5031686;28;20197;-75
2021/06/17 09:01:16;;;;;;;6.30;2.72;;;32.90;99.90;;;;;;5033852;28;20308;-77
2021/06/17 09:03:46;;;;;;;4.80;3.20;;;33.70;99.90;;;;;;5015376;28;20193;-74
2021/06/17 09:06:17;;;;;;;4.35;2.95;;;33.60;99.90;;;;;;5031800;28;20239;-75
2021/06/17 09:08:58;;;;;;;4.00;3.05;;;34.50;99.90;;;;;;5014537;28;20284;-74
2021/06/17 09:11:26;;;;;;;8.20;3.22;;;33.30;99.90;;;;;;5009379;28;20279;-75
2021/06/17 09:14:17;;;;;;;3.35;2.80;;;32.60;99.90;;;;;;5032118;28;20323;-75
2021/06/17 09:17:07;;;;;;;3.92;2.92;;;31.20;99.90;;;;;;5013158;28;20197;-75
2021/06/17 09:19:39;;;;;;;5.15;2.92;;;31.00;99.90;;;;;;5013774;28;20266;-75
2021/06/17 09:22:08;;;;;;;5.75;3.00;;;30.30;99.90;;;;;;5027118;28;20255;-76
2021/06/17 09:24:37;;;;;;;5.93;3.00;;;30.40;99.90;;;;;;5013001;28;20255;-76
2021/06/17 09:27:20;;;;;;;5.03;2.65;;;30.40;99.90;;;;;;5008980;28;20209;-76
2021/06/17 09:29:52;;;;;;;6.30;3.58;;;30.80;99.90;;;;;;5011813;28;20279;-75
2021/06/17 09:32:28;;;;;;;6.55;3.92;;;30.50;99.90;;;;;;5013142;28;20282;-75
2021/06/17 09:34:56;;;;;;;6.22;2.80;;;30.30;99.90;;;;;;5009749;28;20236;-75
2021/06/17 09:37:41;;;;;;;5.47;3.67;;;30.40;99.90;;;;;;5003922;28;20303;-76
2021/06/17 09:40:26;;;;;;;6.07;3.67;;;30.20;99.90;;;;;;5011046;28;20223;-77
2021/06/17 09:43:15;;;;;;;5.88;3.47;;;30.10;99.90;;;;;;5008575;28;20323;-76
2021/06/17 09:46:04;;;;;;;4.38;3.80;;;29.70;99.90;;;;;;5011874;28;20267;-75
2021/06/17 09:48:45;;;;;;;5.10;3.33;;;29.30;99.90;;;;;;5011928;28;20221;-75
2021/06/17 09:51:25;;;;;;;5.18;4.10;;;29.30;99.90;;;;;;5008625;28;20205;-75
2021/06/17 09:54:04;;;;;;;6.30;3.67;;;29.40;99.90;;;;;;5013855;28;20246;-75
2021/06/17 09:56:34;;;;;;;5.30;3.30;;;29.40;1.00;;;;;;5005593;28;20678;-75
2021/06/17 09:59:04;;;;;;;6.28;3.35;;;29.20;1.00;;;;;;5010034;28;20197;-75
2021/06/17 10:01:42;;;;;;;5.53;3.70;;;29.20;99.90;;;;;;5003514;28;21023;-76
2021/06/17 10:04:14;;;;;;;4.40;3.22;;;29.20;1.00;;;;;;5008897;28;20216;-76
2021/06/17 10:06:43;;;;;;;6.57;3.75;;;29.30;1.00;;;;;;5007514;28;20262;-77
2021/06/17 10:09:12;;;;;;;4.83;3.70;;;29.20;99.90;;;;;;5024990;28;20285;-77
2021/06/17 10:11:41;;;;;;;3.63;3.33;;;29.20;99.90;;;;;;5007365;28;20197;-76
2021/06/17 10:14:09;;;;;;;4.73;3.10;;;29.10;1.00;;;;;;5000659;28;20229;-77
2021/06/17 10:16:42;;;;;;;3.53;3.23;;;29.00;1.00;;;;;;5010599;28;20225;-75
2021/06/17 10:19:14;;;;;;;5.15;3.80;;;29.00;1.00;;;;;;4994251;28;20292;-77
2021/06/17 10:21:42;;;;;;;5.00;3.55;;;29.20;1.00;;;;;;5010944;28;20292;-77
2021/06/17 10:24:18;;;;;;;5.20;3.60;;;29.30;1.00;;;;;;5011530;28;20296;-77
2021/06/17 10:27:07;;;;;;;6.18;3.30;;;29.40;1.00;;;;;;5015029;28;20276;-76
2021/06/17 10:29:40;;;;;;;7.13;3.47;;;29.40;1.00;;;;;;5001687;28;20221;-76
2021/06/17 10:32:10;;;;;;;10.23;3.78;;;29.30;1.00;;;;;;5011388;28;20272;-77
2021/06/17 10:34:41;;;;;;;4.13;3.63;;;29.50;1.00;;;;;;5010539;28;20320;-76
2021/06/17 10:37:12;;;;;;;4.90;3.40;;;29.50;1.00;;;;;;5015416;28;20231;-76
2021/06/17 10:39:48;;;;;;;5.80;3.90;;;29.60;1.00;;;;;;5008970;28;21044;-75
2021/06/17 10:42:36;;;;;;;7.38;3.25;;;29.80;1.00;;;;;;5014354;28;21094;-77
2021/06/17 10:45:06;;;;;;;3.97;2.78;;;29.90;1.00;;;;;;5028393;28;20216;-76
2021/06/17 10:48:01;;;;;;;3.72;3.28;;;30.10;99.90;;;;;;5007536;28;20223;-76
2021/06/17 10:50:37;;;;;;;6.83;3.60;;;30.10;99.90;;;;;;5023627;28;20471;-75
2021/06/17 10:53:33;;;;;;;6.00;3.23;;;30.20;99.90;;;;;;5008034;28;20254;-75
2021/06/17 10:56:16;;;;;;;6.27;3.00;;;30.30;99.90;;;;;;5024369;28;20260;-74
2021/06/17 10:58:43;;;;;;;3.30;3.00;;;30.30;99.90;;;;;;5029327;28;20327;-74
2021/06/17 11:01:33;;;;;;;4.97;2.77;;;30.50;99.90;;;;;;5024902;28;20573;-74
2021/06/17 11:04:02;;;;;;;4.30;3.30;;;31.00;99.90;;;;;;5026901;28;20307;-73
2021/06/17 11:06:51;;;;;;;4.73;2.97;;;30.90;99.90;;;;;;5005377;28;20748;-74
2021/06/17 11:09:49;;;;;;;5.90;2.70;;;31.70;99.90;;;;;;5028275;28;20857;-74
2021/06/17 11:12:19;;;;;;;6.32;2.88;;;31.40;99.90;;;;;;5023095;28;20327;-75
2021/06/17 11:14:50;;;;;;;3.83;2.45;;;31.60;99.90;;;;;;5025576;28;20657;-74
2021/06/17 11:17:29;;;;;;;4.40;2.85;;;31.40;99.90;;;;;;5027118;28;20262;-74
2021/06/17 11:19:56;;;;;;;5.25;2.95;;;31.20;99.90;;;;;;5008141;28;20612;-75
2021/06/17 11:22:38;;;;;;;6.97;2.80;;;31.10;99.90;;;;;;5004264;28;20275;-75
2021/06/17 11:25:27;;;;;;;3.47;2.13;;;31.30;99.90;;;;;;5023939;28;20701;-75
2021/06/17 11:28:04;;;;;;;5.55;2.72;;;31.60;99.90;;;;;;5017741;28;20277;-76
2021/06/17 11:30:41;;;;;;;2.92;2.63;;;31.60;99.90;;;;;;5027488;28;20232;-76
2021/06/17 11:33:17;;;;;;;6.93;2.55;;;31.90;99.90;;;;;;5023750;28;20204;-78
2021/06/17 11:36:06;;;;;;;4.22;1.75;;;31.60;99.90;;;;;;5027094;28;20188;-76
2021/06/17 11:38:35;;;;;;;2.55;1.80;;;31.60;99.90;;;;;;5006895;28;20758;-76
2021/06/17 11:41:15;;;;;;;3.60;2.10;;;31.60;99.90;;;;;;5005531;28;20229;-76
2021/06/17 11:43:43;;;;;;;5.63;2.50;;;31.80;99.90;;;;;;5008029;28;20208;-76
2021/06/17 11:46:20;;;;;;;4.30;2.22;;;31.90;99.90;;;;;;5009746;28;20378;-75
2021/06/17 11:48:52;;;;;;;2.30;2.10;;;32.10;99.90;;;;;;5001576;28;20233;-75
2021/06/17 11:51:19;;;;;;;2.65;2.00;;;31.90;99.90;;;;;;5023230;28;20653;-75
2021/06/17 11:53:52;;;;;;;4.22;2.13;;;31.50;99.90;;;;;;4978388;28;20264;-76
2021/06/17 11:56:27;;;;;;;5.47;2.22;;;31.50;99.90;;;;;;5010272;28;20209;-76
2021/06/17 11:58:55;;;;;;;3.67;2.15;;;31.00;99.90;;;;;;5010870;28;20205;-76
2021/06/17 12:01:24;;;;;;;2.42;2.22;;;31.10;99.90;;;;;;5002975;28;20255;-76
2021/06/17 12:03:57;;;;;;;2.50;2.30;;;31.60;99.90;;;;;;4988442;28;20205;-76
2021/06/17 12:06:24;;;;;;;5.10;2.42;;;31.50;99.90;;;;;;4991725;28;20586;-76
2021/06/17 12:09:05;;;;;;;5.35;2.72;;;31.10;99.90;;;;;;5001490;28;20327;-76
2021/06/17 12:11:32;;;;;;;3.45;2.15;;;30.90;99.90;;;;;;5000605;28;20205;-77
2021/06/17 12:14:00;;;;;;;2.60;2.40;;;31.10;99.90;;;;;;4986521;28;20299;-77
2021/06/17 12:16:27;;;;;;;4.60;2.10;;;31.00;99.90;;;;;;5005356;28;20197;-76
2021/06/17 12:18:54;;;;;;;2.75;2.53;;;31.90;99.90;;;;;;5009387;28;20642;-77
2021/06/17 12:21:29;;;;;;;4.80;2.45;;;32.20;99.90;;;;;;5007732;28;20297;-76
2021/06/17 12:23:57;;;;;;;3.15;2.85;;;32.50;99.90;;;;;;5006535;28;20284;-77
2021/06/17 12:26:30;;;;;;;2.58;2.20;;;32.50;99.90;;;;;;4990623;28;20209;-77
2021/06/17 12:29:01;;;;;;;2.17;1.98;;;32.60;99.90;;;;;;5005540;28;20259;-76
2021/06/17 12:31:36;;;;;;;2.63;1.63;;;32.50;99.90;;;;;;5022121;28;20280;-76
2021/06/17 12:34:11;;;;;;;4.22;2.65;;;32.40;99.90;;;;;;5008622;28;20213;-77
2021/06/17 12:36:38;;;;;;;5.45;2.10;;;32.20;99.90;;;;;;5005365;28;20275;-77
2021/06/17 12:39:11;;;;;;;5.28;2.45;;;32.70;99.90;;;;;;5004463;28;20269;-77
2021/06/17 12:41:56;;;;;;;4.43;2.17;;;33.30;99.90;;;;;;4990021;28;20256;-76
2021/06/17 12:44:28;;;;;;;2.13;1.73;;;32.70;99.90;;;;;;5009245;28;20202;-77
2021/06/17 12:46:57;;;;;;;4.35;2.40;;;32.40;99.90;;;;;;4990685;28;20233;-77
2021/06/17 12:52:01;;;;;;;2.38;1.83;;;32.30;99.90;;;;;;5001953;28;20229;-77
2021/06/17 12:52:15;;;;;;;5.65;2.28;;;32.20;99.90;;;;;;4997299;28;20610;-76
2021/06/17 12:54:48;;;;;;;3.47;2.08;;;32.40;99.90;;;;;;4982335;28;20291;-77
2021/06/17 12:57:22;;;;;;;4.60;2.42;;;32.60;99.90;;;;;;4998568;28;20324;-76
2021/06/17 12:59:56;;;;;;;6.10;1.95;;;32.40;99.90;;;;;;5008994;28;20586;-76
2021/06/17 13:02:23;;;;;;;3.58;2.00;;;32.50;99.90;;;;;;5006919;28;20197;-76
2021/06/17 13:05:21;;;;;;;5.25;2.38;;;32.50;99.90;;;;;;5010778;28;20226;-76
2021/06/17 13:08:05;;;;;;;2.38;2.13;;;32.40;99.90;;;;;;4981038;28;20268;-76